Terminal Aerodrome Forecast
Issued by NWS

Home | Current Version | Previous Version | Graphics & Text | Print | Product List | Glossary Off
Versions: 1 2 3 4 5 6 7 8 9 10 11 12 13 14 15

000
FTUS41 KCLE 282300
TAFFDY
TAF
KFDY 282325Z 2900/2924 27006KT P6SM SKC
     FM291400 20012G18KT P6SM SCT040 BKN150
     FM292200 21015G25KT 5SM -RA OVC025=

USA.gov is the U.S. government's official web portal to all federal, state and local government web resources and services.